Latest Weather Observations for Julia Creek

IDQ60801

Issued at 7:05 am EST Tuesday 21 October 2014 (issued every 30 minutes, with the page automatically refreshed every 10 minutes)

About weather observations | Map of weather stations | Latest weather observations for QLD | Other Formats
Station Details ID: 029058 Name: JULIA CREEK AIRPORT Lat: -20.67 Lon: 141.72 Height: 122.5 m
Data from the previous 72 hours. | See also: Recent months at Julia Creek
Date/Time
EST
Temp
°C
App
Temp
°C
Dew
Point
Rel
Hum
%
Delta-T
°C
Wind Press
QNH
hPa
Press
MSL
hPa
Rain
since 9 am
mm
Dir
 
Spd
km/h
Gust
km/h
Spd
kts
Gust
kts
21/07:00am 21.0 17.8 2.8 30 8.6 ENE 9 15 5 8 1019.5 1018.8 0.0
21/06:30am 18.8 15.8 1.8 32 7.7 ENE 7 11 4 6 1018.8 1018.1 0.0
21/06:00am 17.2 12.9 0.8 33 7.2 E 13 15 7 8 1018.3 1017.6 0.0
21/05:30am 15.7 11.5 -0.9 32 7.0 E 11 13 6 7 1017.6 1016.9 0.0
21/05:00am 15.8 11.5 -1.3 31 7.1 ESE 11 13 6 7 1017.0 1016.3 0.0
21/04:30am 16.5 11.9 -0.7 31 7.3 ESE 13 15 7 8 1016.6 1015.9 0.0
21/04:00am 17.2 12.7 -0.1 31 7.5 SE 13 15 7 8 1016.3 1015.5 0.0
21/03:30am 17.6 13.1 -0.2 30 7.7 ESE 13 15 7 8 1016.2 1015.4 0.0
21/03:00am 17.3 13.1 -0.9 29 7.7 ESE 11 13 6 7 1016.2 1015.4 0.0
21/02:30am 18.1 13.9 -0.7 28 8.1 SE 11 13 6 7 1016.2 1015.4 0.0
21/02:00am 18.6 14.4 -0.7 27 8.3 SE 11 13 6 7 1016.2 1015.4 0.0
21/01:30am 19.5 15.0 -0.5 26 8.8 ESE 13 15 7 8 1016.5 1015.8 0.0
21/01:00am 19.1 14.8 -1.4 25 8.8 ESE 11 13 6 7 1016.9 1016.2 0.0
21/12:30am 20.2 16.0 -1.0 24 9.3 ESE 11 13 6 7 1017.1 1016.4 0.0
21/12:00am 20.8 16.7 -0.5 24 9.4 SE 11 13 6 7 1017.3 1016.6 0.0
 
Date/Time
EST
Temp
°C
App
Temp
°C
Dew
Point
Rel
Hum
%
Delta-T
°C
Wind Press
QNH
hPa
Press
MSL
hPa
Rain
since 9 am
mm
Dir
 
Spd
km/h
Gust
km/h
Spd
kts
Gust
kts
20/11:30pm 21.1 16.9 -0.8 23 9.7 SE 11 13 6 7 1017.3 1016.6 0.0
20/11:00pm 22.0 17.4 -1.3 21 10.2 ESE 13 13 7 7 1017.2 1016.5 0.0
20/10:30pm 23.9 18.9 -1.1 19 11.2 SE 15 17 8 9 1017.2 1016.5 0.0
20/10:00pm 25.4 20.1 -0.6 18 11.9 SE 17 19 9 10 1017.1 1016.4 0.0
20/09:30pm 25.9 20.5 -1.0 17 12.3 SE 17 19 9 10 1017.0 1016.3 0.0
20/09:00pm 26.3 21.3 -1.5 16 12.6 SE 15 19 8 10 1016.6 1015.9 0.0
20/08:30pm 27.0 22.0 -0.9 16 12.9 SE 15 17 8 9 1016.2 1015.4 0.0
20/08:00pm 27.8 22.8 -1.2 15 13.4 SE 15 17 8 9 1015.9 1015.1 0.0
20/07:30pm 28.9 23.9 -1.2 14 14.0 SE 15 19 8 10 1015.5 1014.7 0.0
20/07:00pm 30.5 25.5 -1.0 13 14.9 SE 15 19 8 10 1015.1 1014.3 0.0
20/06:30pm 32.5 27.2 -0.5 12 16.0 ESE 17 22 9 12 1014.8 1014.0 0.0
20/06:00pm 33.6 27.3 -0.9 11 16.7 ESE 22 30 12 16 1014.6 1013.8 0.0
20/05:30pm 34.4 27.1 -0.3 11 17.1 SE 28 43 15 23 1014.2 1013.4 0.0
20/05:00pm 35.1 28.0 -1.1 10 17.7 ESE 26 41 14 22 1014.0 1013.2 0.0
20/04:30pm 35.2 28.5 1.5 12 17.2 ESE 26 33 14 18 1014.1 1013.3 0.0
20/04:00pm 35.8 29.6 2.0 12 17.4 ESE 24 32 13 17 1014.1 1013.3 0.0
20/03:30pm 35.0 28.3 1.4 12 17.1 ESE 26 37 14 20 1014.4 1013.6 0.0
20/03:00pm 35.0 28.9 0.2 11 17.3 E 22 32 12 17 1014.7 1013.9 0.0
20/02:30pm 34.8 29.2 0.0 11 17.3 ESE 19 30 10 16 1015.0 1014.2 0.0
20/02:00pm 34.4 28.6 -0.3 11 17.1 ESE 20 35 11 19 1015.5 1014.7 0.0
20/01:30pm 33.5 27.9 1.3 13 16.2 ESE 20 33 11 18 1016.3 1015.5 0.0
20/01:00pm 33.9 28.3 3.7 15 15.8 ESE 22 33 12 18 1016.9 1016.2 0.0
20/12:30pm 33.4 27.7 5.0 17 15.1 E 24 37 13 20 1017.6 1016.9 0.0
20/12:00pm 32.5 26.8 5.1 18 14.5 ESE 24 39 13 21 1018.2 1017.5 0.0
20/11:30am 32.3 27.3 6.5 20 14.0 E 22 33 12 18 1018.8 1018.1 0.0
20/11:00am 31.7 27.3 7.4 22 13.3 E 20 32 11 17 1019.5 1018.8 0.0
20/10:30am 30.8 25.0 7.9 24 12.6 E 28 39 15 21 1019.9 1019.2 0.0
20/10:00am 30.0 24.7 8.4 26 11.9 E 26 37 14 20 1020.4 1019.7 0.0
20/09:30am 29.7 25.0 9.3 28 11.4 E 24 39 13 21 1020.7 1020.0 0.0
20/09:00am 28.3 23.0 10.0 32 10.3 E 28 41 15 22 1020.8 1020.1 0.0
20/08:30am 27.2 21.7 10.4 35 9.5 ENE 30 41 16 22 1020.6 1019.9 0.0
20/08:00am 25.5 21.1 10.5 39 8.4 E 24 33 13 18 1020.3 1019.6 0.0
20/07:30am 24.2 20.7 10.8 43 7.5 E 20 30 11 16 1020.1 1019.4 0.0
20/07:00am 22.9 19.4 8.6 40 7.6 E 17 24 9 13 1019.8 1019.1 0.0
20/06:30am 21.2 17.1 6.3 38 7.6 E 17 22 9 12 1019.3 1018.6 0.0
20/06:00am 20.1 16.6 5.4 38 7.3 E 13 17 7 9 1018.9 1018.2 0.0
20/05:30am 18.3 14.4 3.4 37 7.0 E 13 15 7 8 1018.4 1017.7 0.0
20/05:00am 18.2 14.1 2.5 35 7.2 ESE 13 13 7 7 1018.0 1017.3 0.0
20/04:30am 18.5 14.1 2.8 35 7.3 ESE 15 15 8 8 1017.6 1016.9 0.0
20/04:00am 18.5 14.0 1.9 33 7.6 ESE 15 17 8 9 1017.4 1016.7 0.0
20/03:30am 19.1 14.6 2.0 32 7.9 ESE 15 17 8 9 1017.4 1016.7 0.0
20/03:00am 20.0 15.5 2.4 31 8.2 ESE 15 19 8 10 1017.4 1016.7 0.0
20/02:30am 21.0 16.2 2.8 30 8.6 ESE 17 19 9 10 1017.2 1016.5 0.0
20/02:00am 21.7 17.0 2.9 29 8.9 ESE 17 20 9 11 1017.3 1016.6 0.0
20/01:30am 22.1 17.4 3.3 29 9.1 SE 17 19 9 10 1017.3 1016.6 0.0
20/01:00am 23.1 18.5 3.6 28 9.5 SE 17 22 9 12 1017.5 1016.8 0.0
20/12:30am 23.4 18.5 3.9 28 9.6 SE 19 22 10 12 1017.6 1016.9 0.0
20/12:00am 23.6 19.0 3.5 27 9.8 SE 17 20 9 11 1017.9 1017.2 0.0
 
Date/Time
EST
Temp
°C
App
Temp
°C
Dew
Point
Rel
Hum
%
Delta-T
°C
Wind Press
QNH
hPa
Press
MSL
hPa
Rain
since 9 am
mm
Dir
 
Spd
km/h
Gust
km/h
Spd
kts
Gust
kts
19/11:30pm 23.9 19.3 3.8 27 9.9 SE 17 19 9 10 1018.1 1017.4 0.0
19/11:00pm 24.3 20.1 3.6 26 10.2 SE 15 17 8 9 1018.1 1017.4 0.0
19/10:30pm 24.9 20.8 4.1 26 10.4 SE 15 19 8 10 1018.0 1017.3 0.0
19/10:00pm 25.4 21.2 4.0 25 10.7 SE 15 17 8 9 1017.8 1017.1 0.0
19/09:30pm 25.7 21.8 3.6 24 11.0 SE 13 15 7 8 1017.5 1016.8 0.0
19/09:00pm 26.6 22.4 3.8 23 11.4 SE 15 17 8 9 1017.1 1016.4 0.0
19/08:30pm 27.2 23.0 3.7 22 11.8 ESE 15 17 8 9 1016.6 1015.9 0.0
19/08:00pm 27.9 23.7 3.6 21 12.2 ESE 15 17 8 9 1016.4 1015.7 0.0
19/07:30pm 29.8 25.3 4.4 20 13.1 E 17 20 9 11 1015.9 1015.1 0.0
19/07:00pm 30.9 25.7 3.8 18 14.0 ESE 20 26 11 14 1015.6 1014.8 0.0
19/06:30pm 32.0 25.9 4.7 18 14.4 ESE 26 33 14 18 1015.1 1014.3 0.0
19/06:00pm 32.9 26.4 4.6 17 14.9 E 28 35 15 19 1014.6 1013.8 0.0
19/05:30pm 33.9 27.2 3.7 15 15.8 E 28 37 15 20 1014.3 1013.5 0.0
19/05:00pm 34.6 27.4 3.2 14 16.4 E 30 41 16 22 1014.2 1013.4 0.0
19/04:30pm 34.7 27.8 2.3 13 16.7 E 28 39 15 21 1014.1 1013.3 0.0
19/04:12pm 35.4 28.4 1.7 12 17.2 E 28 50 15 27 1014.1 1013.3 0.0
19/04:00pm 34.8 28.2 2.3 13 16.7 ESE 26 39 14 21 1014.1 1013.3 0.0
19/03:30pm 34.9 27.4 1.3 12 17.0 ESE 30 43 16 23 1014.4 1013.6 0.0
19/03:00pm 35.2 27.4 1.5 12 17.2 ESE 32 52 17 28 1014.4 1013.6 0.0
19/02:57pm 35.5 28.1 1.8 12 17.3 ESE 30 52 16 28 1014.4 1013.6 0.0
19/02:30pm 35.4 29.5 1.7 12 17.2 ESE 22 35 12 19 1014.9 1014.1 0.0
19/02:00pm 35.7 28.5 0.7 11 17.6 ESE 28 43 15 23 1015.4 1014.6 0.0
19/01:30pm 34.4 27.8 2.0 13 16.5 E 26 43 14 23 1016.0 1015.2 0.0
19/01:13pm 34.4 27.6 3.1 14 16.3 ESE 28 48 15 26 1016.5 1015.8 0.0
19/01:00pm 34.5 27.1 2.1 13 16.6 ESE 30 46 16 25 1016.7 1016.0 0.0
19/12:40pm 34.1 27.4 3.8 15 15.9 ESE 28 48 15 26 1017.2 1016.5 0.0
19/12:30pm 34.1 27.1 1.8 13 16.4 ESE 28 37 15 20 1017.5 1016.8 0.0
19/12:00pm 33.5 26.4 3.3 15 15.6 ESE 30 44 16 24 1018.2 1017.5 0.0
19/11:30am 32.4 27.5 5.1 18 14.5 E 20 37 11 20 1018.8 1018.1 0.0
19/11:00am 31.8 26.1 6.8 21 13.6 ENE 26 37 14 20 1019.5 1018.8 0.0
19/10:30am 30.4 25.8 6.3 22 12.9 E 20 35 11 19 1020.2 1019.5 0.0
19/10:00am 30.1 24.9 7.3 24 12.4 ENE 24 35 13 19 1020.6 1019.9 0.0
19/09:30am 29.0 25.2 7.6 26 11.6 ENE 17 35 9 19 1020.9 1020.2 0.0
19/09:00am 28.1 24.8 7.9 28 10.9 E 15 22 8 12 1021.0 1020.3 0.0
19/08:30am 26.7 23.4 8.2 31 10.0 ENE 15 22 8 12 1020.9 1020.2 0.0
19/08:00am 25.5 22.0 7.1 31 9.7 ENE 15 22 8 12 1020.7 1020.0 0.0
19/07:30am 23.1 19.8 4.6 30 9.2 ENE 11 17 6 9 1020.4 1019.7 0.0
19/07:00am 21.3 17.7 3.0 30 8.7 ENE 11 15 6 8 1019.9 1019.2 0.0
19/06:30am 18.3 14.2 0.0 29 8.0 E 11 13 6 7 1019.2 1018.5 0.0
19/06:00am 16.7 12.4 -1.4 29 7.6 ESE 11 13 6 7 1018.7 1018.0 0.0
19/05:30am 18.5 14.7 -0.8 27 8.3 E 9 11 5 6 1018.1 1017.4 0.0
19/05:00am 19.6 15.9 0.1 27 8.6 E 9 11 5 6 1017.6 1016.9 0.0
19/04:30am 18.9 14.4 -0.5 27 8.5 E 13 15 7 8 1017.0 1016.3 0.0
19/04:00am 19.1 14.8 -1.4 25 8.8 E 11 13 6 7 1016.4 1015.7 0.0
19/03:30am 20.3 16.1 -0.9 24 9.3 E 11 13 6 7 1016.3 1015.5 0.0
19/03:00am 22.7 17.9 -0.1 22 10.3 E 15 17 8 9 1016.2 1015.4 0.0
19/02:30am 24.8 19.1 0.3 20 11.4 E 20 26 11 14 1016.0 1015.2 0.0
19/02:00am 25.2 19.7 0.7 20 11.5 E 19 24 10 13 1016.0 1015.2 0.0
19/01:30am 25.8 19.7 0.5 19 11.9 E 22 32 12 17 1016.0 1015.2 0.0
19/01:00am 26.4 20.0 0.9 19 12.1 E 24 32 13 17 1016.0 1015.2 0.0
19/12:30am 26.6 19.7 0.4 18 12.4 E 26 33 14 18 1016.2 1015.4 0.0
19/12:00am 25.9 20.8 0.5 19 11.9 ESE 17 24 9 13 1016.3 1015.5 0.0
 
Date/Time
EST
Temp
°C
App
Temp
°C
Dew
Point
Rel
Hum
%
Delta-T
°C
Wind Press
QNH
hPa
Press
MSL
hPa
Rain
since 9 am
mm
Dir
 
Spd
km/h
Gust
km/h
Spd
kts
Gust
kts
18/11:30pm 24.7 19.7 -1.2 18 11.7 ESE 15 20 8 11 1016.5 1015.8 0.0
18/11:00pm 26.4 20.7 -0.6 17 12.5 ESE 19 22 10 12 1016.5 1015.8 0.0
18/10:30pm 25.8 20.8 -1.1 17 12.3 ESE 15 19 8 10 1016.4 1015.7 0.0
18/10:00pm 24.4 19.2 -3.0 16 11.9 ESE 15 17 8 9 1016.2 1015.4 0.0
18/09:30pm 24.1 19.1 -4.1 15 12.0 ESE 13 15 7 8 1016.1 1015.3 0.0
18/09:00pm 25.3 20.0 -3.2 15 12.4 SE 15 17 8 9 1015.9 1015.1 0.0
18/08:30pm 25.9 21.0 -3.6 14 12.9 SE 13 15 7 8 1015.6 1014.8 0.0
18/08:00pm 27.1 21.8 -3.7 13 13.5 SE 15 17 8 9 1015.3 1014.5 0.0
18/07:30pm 27.9 23.2 -5.2 11 14.3 SE 11 13 6 7 1015.0 1014.2 0.0
18/07:00pm 30.4 25.4 -4.6 10 15.6 SE 13 15 7 8 1014.7 1013.9 0.0
18/06:30pm 33.2 27.9 -3.9 9 17.1 ESE 15 20 8 11 1014.3 1013.5 0.0
18/06:00pm 34.8 29.6 -2.7 9 17.8 ESE 15 24 8 13 1013.8 1013.1 0.0
18/05:30pm 35.9 29.3 -3.5 8 18.6 ESE 22 28 12 15 1013.3 1012.6 0.0
18/05:00pm 35.9 29.3 -3.5 8 18.6 ESE 22 33 12 18 1013.1 1012.4 0.0
18/04:43pm 36.5 28.4 -3.0 8 18.9 SE 30 39 16 21 1013.0 1012.3 0.0
18/04:30pm 35.6 31.8 -3.7 8 18.5 SSE 7 11 4 6 1013.0 1012.3 0.0
18/04:00pm 35.8 30.3 -5.3 7 18.8 SSE 15 30 8 16 1013.2 1012.5 0.0
18/03:30pm 36.9 30.2 -4.5 7 19.4 S 22 33 12 18 1013.4 1012.7 0.0
18/03:00pm 36.1 29.7 -5.1 7 19.0 ESE 20 28 11 15 1013.8 1013.1 0.0
18/02:30pm 36.6 30.6 -3.0 8 18.9 S 19 32 10 17 1014.3 1013.5 0.0
18/02:00pm 35.6 31.8 -3.7 8 18.4 S 7 17 4 9 1014.7 1013.9 0.0
18/01:30pm 35.8 29.6 -3.5 8 18.5 S 20 32 11 17 1015.2 1014.4 0.0
18/01:00pm 35.3 29.4 -2.3 9 18.0 E 19 28 10 15 1015.9 1015.1 0.0
18/12:30pm 34.3 30.6 -3.1 9 17.6 ENE 7 17 4 9 1016.6 1015.9 0.0
18/12:00pm 34.4 31.1 -1.6 10 17.3 SSE 6 17 3 9 1017.1 1016.4 0.0
18/11:30am 34.1 28.1 -1.8 10 17.2 SE 20 28 11 15 1017.7 1017.0 0.0
18/11:00am 33.7 28.8 -0.8 11 16.7 ENE 15 26 8 14 1018.2 1017.5 0.0
18/10:30am 33.1 29.0 -0.1 12 16.3 ENE 11 22 6 12 1018.6 1017.9 0.0
18/10:00am 31.8 26.6 0.0 13 15.4 NE 17 28 9 15 1018.9 1018.2 0.0
18/09:30am 31.3 25.6 -0.4 13 15.3 ENE 19 28 10 15 1019.0 1018.3 0.0
18/09:00am 30.7 25.6 -1.9 12 15.2 E 15 20 8 11 1019.0 1018.3 0.0
18/08:30am 28.3 22.6 -3.8 12 14.2 E 17 22 9 12 1018.9 1018.2 0.0
18/08:00am 24.7 18.3 -6.6 12 12.7 ESE 19 22 10 12 1018.6 1017.9 0.0
18/07:30am 21.2 15.1 -8.3 13 11.2 ESE 17 20 9 11 1018.1 1017.4 0.0

Other Formats:

Comma delimited format used in spreadsheet applications
http://www.bom.gov.au/fwo/IDQ60801/IDQ60801.94337.axf

JavaScript Object Notation format (JSON) in row-major order
http://www.bom.gov.au/fwo/IDQ60801/IDQ60801.94337.json